首页
METAR-TAF:

METAR-TAF

机场 :

秋田機場

秋田, 日本

纬度: 39-37N, 经度: 140-13E, 海拔: 93米

当前天气观测

该预报发布于45分钟前的01:00 UTC
风速4节,风向东南,在东转东南西转西南之间变化
温度 16°C
湿度 88%
气压 1015 hPa
能见度10公里或以上
少量云层高于200英尺
散云层高于3500英尺
附近有阵雨

METAR: RJSK 240100Z 14004KT 110V240 9999 VCSH FEW002 SCT035 16/14 Q1015

时间: 10:45 (01:45 UTC)

预报

该预报发布于2小时和37分钟前的23:08 UTC
预报有效从24日的 00点(UTC)到 25日的 06点(UTC)
风速4节,风向东南
能见度10公里或以上
少量云层高于2000英尺
散云层高于4000英尺
短暂存在
从 24日的 00点(UTC)到 24日的 02点(UTC)
能見度: 4000
少量云层高于500英尺
多云层高于800英尺
多云层高于1500英尺
阵雨, 轻雾
成为
从 24日的 01点(UTC)到 24日的 03点(UTC)
风速8节,风向西转西北

TAF: RJSK 232308Z 2400/2506 14004KT 9999 FEW020 SCT040 TEMPO 2400/2402 4000 SHRA BR FEW005 BKN008 BKN015 BECMG 2401/2403 30008KT

超过4000个机场的气象观测和天气预报(METAR&TAF报告)。

可查询的气象台以黄色和红色小点在地图上表示。

将鼠标移到小点上方,可查看气象台名称。

然后点击查看天气观测和预报。

如需切换地图:点击带黑十字的绿色按钮放大地图;点击带横线的绿色按钮缩小地图;或者点击绿色箭头查看邻近地区的地图。


METAR-TAF: